createdAt,value
2023-01-03T00:01:24.599Z,102255.88
2023-01-03T00:03:56.952Z,102258.34
2023-01-03T00:06:33.808Z,102261.59
2023-01-03T00:09:03.066Z,102252.63
2023-01-03T00:11:52.626Z,102251.84
2023-01-03T00:14:23.505Z,102246.94
2023-01-03T00:16:56.182Z,102251.03
2023-01-03T00:19:24.769Z,102253.75
2023-01-03T00:21:52.684Z,102249.41
2023-01-03T00:24:20.804Z,102255.09
2023-01-03T00:26:48.610Z,102249.13
2023-01-03T00:29:17.011Z,102253.75
2023-01-03T00:31:44.458Z,102246.69
2023-01-03T00:34:13.076Z,102247.50
2023-01-03T00:36:41.062Z,102243.97
2023-01-03T00:39:09.198Z,102244.22
2023-01-03T00:41:36.547Z,102238.56
2023-01-03T00:44:04.534Z,102241.81
2023-01-03T00:46:32.759Z,102240.72
2023-01-03T00:49:00.385Z,102246.41
2023-01-03T00:51:30.786Z,102248.31
2023-01-03T00:54:00.180Z,102244.22
2023-01-03T00:56:31.799Z,102237.16
2023-01-03T00:58:59.198Z,102242.31
2023-01-03T01:01:42.494Z,102245.00
2023-01-03T01:04:17.514Z,102246.69
2023-01-03T01:06:56.313Z,102247.75
2023-01-03T01:09:26.932Z,102255.38
2023-01-03T01:11:54.550Z,102254.84
2023-01-03T01:14:24.217Z,102254.53
2023-01-03T01:17:00.076Z,102258.38
2023-01-03T01:19:34.400Z,102258.38
2023-01-03T01:22:02.043Z,102255.66
2023-01-03T01:24:29.751Z,102261.34
2023-01-03T01:26:57.245Z,102246.94
2023-01-03T01:29:25.186Z,102254.03
2023-01-03T01:31:53.028Z,102254.03
2023-01-03T01:34:20.575Z,102259.19
2023-01-03T01:36:48.428Z,102253.78
2023-01-03T01:39:21.831Z,102254.03
2023-01-03T01:42:18.314Z,102263.00
2023-01-03T01:45:00.468Z,102260.03
2023-01-03T01:47:32.741Z,102264.06
2023-01-03T01:50:29.623Z,102259.75
2023-01-03T01:53:02.771Z,102273.31
2023-01-03T01:55:37.155Z,102260.81
2023-01-03T01:58:07.262Z,102258.09
2023-01-03T02:00:36.301Z,102255.69
2023-01-03T02:03:04.340Z,102245.91
2023-01-03T02:05:35.195Z,102258.63
2023-01-03T02:08:03.205Z,102256.19
2023-01-03T02:11:03.359Z,102257.81
2023-01-03T02:13:36.553Z,102255.38
2023-01-03T02:16:24.199Z,102251.56
2023-01-03T02:19:22.635Z,102237.44
2023-01-03T02:22:20.053Z,102243.97
2023-01-03T02:25:19.949Z,102245.59
2023-01-03T02:28:08.936Z,102234.16
2023-01-03T02:31:00.829Z,102240.16
2023-01-03T02:33:28.169Z,102228.72
2023-01-03T02:36:08.147Z,102225.50
2023-01-03T02:39:04.512Z,102229.84
2023-01-03T02:41:45.729Z,102235.53
2023-01-03T02:44:25.952Z,102235.25
2023-01-03T02:47:03.120Z,102229.28
2023-01-03T02:49:38.289Z,102233.09
2023-01-03T02:52:11.368Z,102229.00
2023-01-03T02:54:54.629Z,102219.50
2023-01-03T02:57:32.058Z,102229.56
2023-01-03T03:00:08.877Z,102225.75
2023-01-03T03:02:39.931Z,102225.22
2023-01-03T03:05:14.490Z,102224.66
2023-01-03T03:07:42.181Z,102224.13
2023-01-03T03:10:30.135Z,102227.09
2023-01-03T03:13:39.969Z,102221.13
2023-01-03T03:16:44.224Z,102218.16
2023-01-03T03:19:55.353Z,102226.31
2023-01-03T03:22:53.026Z,102228.47
2023-01-03T03:25:26.196Z,102225.50
2023-01-03T03:28:18.656Z,102211.34
2023-01-03T03:30:47.960Z,102215.97
2023-01-03T03:33:17.861Z,102209.72
2023-01-03T03:35:56.623Z,102210.00
2023-01-03T03:38:31.871Z,102212.19
2023-01-03T03:41:52.057Z,102217.88
2023-01-03T03:45:00.937Z,102212.44
2023-01-03T03:47:46.029Z,102218.97
2023-01-03T03:50:29.407Z,102213.53
2023-01-03T03:53:04.899Z,102218.16
2023-01-03T03:55:41.569Z,102220.56
2023-01-03T03:58:13.926Z,102214.63
2023-01-03T04:00:43.114Z,102210.59
2023-01-03T04:03:11.369Z,102214.34
2023-01-03T04:05:48.532Z,102217.06
2023-01-03T04:08:16.517Z,102218.97
2023-01-03T04:10:44.192Z,102204.06
2023-01-03T04:13:11.722Z,102207.00
2023-01-03T04:15:39.339Z,102210.81
2023-01-03T04:18:07.057Z,102211.38
2023-01-03T04:20:34.485Z,102212.72
2023-01-03T04:23:01.847Z,102220.88
2023-01-03T04:25:29.415Z,102215.72
2023-01-03T04:27:57.426Z,102211.91
2023-01-03T04:30:24.850Z,102211.38
2023-01-03T04:32:52.230Z,102223.31
2023-01-03T04:35:19.641Z,102213.00
2023-01-03T04:37:47.055Z,102223.31
2023-01-03T04:40:14.796Z,102216.53
2023-01-03T04:43:00.881Z,102217.88
2023-01-03T04:45:28.367Z,102225.22
2023-01-03T04:47:56.173Z,102225.78
2023-01-03T04:50:23.627Z,102216.25
2023-01-03T04:52:51.120Z,102214.09
2023-01-03T04:55:18.672Z,102215.16
2023-01-03T04:57:46.183Z,102204.31
2023-01-03T05:00:14.170Z,102220.06
2023-01-03T05:02:41.895Z,102221.69
2023-01-03T05:05:10.246Z,102227.69
2023-01-03T05:07:37.667Z,102222.25
2023-01-03T05:10:05.652Z,102225.81
2023-01-03T05:12:33.070Z,102222.00
2023-01-03T05:15:00.792Z,102219.25
2023-01-03T05:17:28.338Z,102221.44
2023-01-03T05:20:14.627Z,102218.97
2023-01-03T05:23:00.739Z,102225.25
2023-01-03T05:25:46.379Z,102230.19
2023-01-03T05:28:17.325Z,102230.13
2023-01-03T05:30:45.186Z,102221.72
2023-01-03T05:33:12.714Z,102222.81
2023-01-03T05:35:40.124Z,102234.22
2023-01-03T05:38:07.609Z,102241.81
2023-01-03T05:40:40.905Z,102247.25
2023-01-03T05:43:09.360Z,102248.34
2023-01-03T05:45:37.908Z,102245.09
2023-01-03T05:48:06.585Z,102249.16
2023-01-03T05:50:34.175Z,102256.50
2023-01-03T05:53:01.951Z,102256.75
2023-01-03T05:55:29.329Z,102264.63
2023-01-03T05:57:56.798Z,102247.78
2023-01-03T06:00:24.172Z,102253.50
2023-01-03T06:02:51.768Z,102248.66
2023-01-03T06:05:19.261Z,102257.03
2023-01-03T06:07:46.719Z,102253.22
2023-01-03T06:10:14.181Z,102261.38
2023-01-03T06:12:41.615Z,102255.13
2023-01-03T06:15:09.650Z,102255.41
2023-01-03T06:17:55.272Z,102264.63
2023-01-03T06:20:23.164Z,102265.44
2023-01-03T06:22:52.340Z,102269.50
2023-01-03T06:25:19.814Z,102263.25
2023-01-03T06:27:47.291Z,102272.22
2023-01-03T06:30:15.848Z,102278.75
2023-01-03T06:32:44.954Z,102275.50
2023-01-03T06:35:13.071Z,102280.38
2023-01-03T06:37:41.264Z,102279.03
2023-01-03T06:40:09.367Z,102277.41
2023-01-03T06:42:39.624Z,102284.47
2023-01-03T06:45:26.199Z,102277.41
2023-01-03T06:48:12.192Z,102276.81
2023-01-03T06:51:02.777Z,102275.19
2023-01-03T06:53:36.524Z,102274.69
2023-01-03T06:56:05.654Z,102274.13
2023-01-03T06:58:33.426Z,102274.94
2023-01-03T07:01:03.857Z,102280.38
2023-01-03T07:03:32.457Z,102279.03
2023-01-03T07:05:59.955Z,102265.72
2023-01-03T07:08:27.402Z,102284.19
2023-01-03T07:10:55.345Z,102282.28
2023-01-03T07:13:41.731Z,102287.44
2023-01-03T07:16:18.231Z,102293.94
2023-01-03T07:18:52.831Z,102298.84
2023-01-03T07:21:24.546Z,102295.31
2023-01-03T07:23:56.845Z,102299.38
2023-01-03T07:26:25.446Z,102293.13
2023-01-03T07:28:53.008Z,102287.97
2023-01-03T07:31:20.665Z,102289.34
2023-01-03T07:33:48.224Z,102282.81
2023-01-03T07:36:16.819Z,102289.56
2023-01-03T07:38:45.713Z,102306.16
2023-01-03T07:41:15.068Z,102308.03
2023-01-03T07:43:45.247Z,102303.97
2023-01-03T07:46:24.429Z,102306.94
2023-01-03T07:48:55.259Z,102296.88
2023-01-03T07:51:22.993Z,102302.59
2023-01-03T07:53:52.434Z,102302.06
2023-01-03T07:56:21.745Z,102301.22
2023-01-03T07:58:49.653Z,102305.28
2023-01-03T08:01:19.643Z,102307.47
2023-01-03T08:03:47.435Z,102304.94
2023-01-03T08:06:18.314Z,102297.09
2023-01-03T08:09:06.584Z,102298.19
2023-01-03T08:11:52.893Z,102310.66
2023-01-03T08:14:25.716Z,102295.69
2023-01-03T08:16:55.323Z,102303.81
2023-01-03T08:19:24.492Z,102308.44
2023-01-03T08:21:52.496Z,102304.13
2023-01-03T08:24:20.134Z,102315.56
2023-01-03T08:26:47.622Z,102310.63
2023-01-03T08:29:15.402Z,102307.06
2023-01-03T08:31:50.497Z,102310.31
2023-01-03T08:34:25.385Z,102317.97
2023-01-03T08:37:01.617Z,102319.06
2023-01-03T08:39:34.794Z,102331.28
2023-01-03T08:42:05.548Z,102329.66
2023-01-03T08:44:33.283Z,102326.41
2023-01-03T08:47:07.973Z,102326.94
2023-01-03T08:49:36.690Z,102328.84
2023-01-03T08:52:04.578Z,102337.53
2023-01-03T08:54:32.315Z,102334.53
2023-01-03T08:56:59.818Z,102338.56
2023-01-03T08:59:27.792Z,102341.00
2023-01-03T09:02:01.403Z,102342.09
2023-01-03T09:04:29.055Z,102335.81
2023-01-03T09:06:56.870Z,102333.81
2023-01-03T09:09:24.242Z,102343.63
2023-01-03T09:11:51.597Z,102342.25
2023-01-03T09:14:19.008Z,102343.03
2023-01-03T09:16:49.364Z,102354.44
2023-01-03T09:19:17.387Z,102354.66
2023-01-03T09:21:44.917Z,102357.13
2023-01-03T09:24:12.479Z,102357.63
2023-01-03T09:26:39.888Z,102358.41
2023-01-03T09:29:07.332Z,102353.25
2023-01-03T09:31:35.394Z,102352.50
2023-01-03T09:34:05.355Z,102345.16
2023-01-03T09:36:33.130Z,102350.31
2023-01-03T09:39:00.641Z,102346.31
2023-01-03T09:41:28.600Z,102349.53
2023-01-03T09:44:05.079Z,102344.34
2023-01-03T09:46:33.651Z,102340.81
2023-01-03T09:49:03.820Z,102344.84
2023-01-03T09:52:00.184Z,102341.00
2023-01-03T09:54:58.243Z,102339.53
2023-01-03T09:57:49.750Z,102336.00
2023-01-03T10:00:42.812Z,102336.81
2023-01-03T10:03:37.155Z,102332.72
2023-01-03T10:06:07.203Z,102333.47
2023-01-03T10:08:57.454Z,102335.59
2023-01-03T10:11:55.415Z,102323.00
2023-01-03T10:14:22.741Z,102328.56
2023-01-03T10:17:22.128Z,102319.78
2023-01-03T10:20:04.631Z,102314.16
2023-01-03T10:22:33.199Z,102307.56
2023-01-03T10:25:21.714Z,102309.94
2023-01-03T10:27:58.697Z,102314.22
2023-01-03T10:30:38.192Z,102308.56
2023-01-03T10:33:38.795Z,102307.44
2023-01-03T10:36:08.012Z,102308.56
2023-01-03T10:38:44.883Z,102297.28
2023-01-03T10:41:29.821Z,102296.88
2023-01-03T10:43:59.680Z,102309.41
2023-01-03T10:46:31.104Z,102294.09
2023-01-03T10:49:27.392Z,102295.34
2023-01-03T10:52:12.080Z,102298.38
2023-01-03T10:54:42.542Z,102291.47
2023-01-03T10:57:40.502Z,102289.03
2023-01-03T11:00:28.302Z,102281.59
2023-01-03T11:03:02.766Z,102285.97
2023-01-03T11:05:30.267Z,102278.31
2023-01-03T11:08:03.488Z,102277.75
2023-01-03T11:11:01.235Z,102273.25
2023-01-03T11:13:39.962Z,102270.38
2023-01-03T11:16:19.139Z,102267.16
2023-01-03T11:19:01.501Z,102260.09
2023-01-03T11:21:39.409Z,102253.34
2023-01-03T11:24:27.243Z,102258.47
2023-01-03T11:27:06.709Z,102259.06
2023-01-03T11:29:59.162Z,102264.63
2023-01-03T11:32:57.565Z,102255.88
2023-01-03T11:35:46.509Z,102258.00
2023-01-03T11:38:14.534Z,102264.63
2023-01-03T11:40:46.299Z,102255.88
2023-01-03T11:43:44.718Z,102265.38
2023-01-03T11:46:33.810Z,102265.44
2023-01-03T11:49:39.838Z,102261.53
2023-01-03T11:52:10.203Z,102255.38
2023-01-03T11:54:53.005Z,102253.16
2023-01-03T11:57:57.541Z,102254.28
2023-01-03T12:01:05.596Z,102249.38
2023-01-03T12:03:51.329Z,102235.13
2023-01-03T12:06:35.648Z,102237.34
2023-01-03T12:09:18.341Z,102240.53
2023-01-03T12:12:03.780Z,102240.53
2023-01-03T12:14:47.474Z,102236.28
2023-01-03T12:17:15.436Z,102228.63
2023-01-03T12:19:48.909Z,102221.25
2023-01-03T12:22:27.658Z,102227.31
2023-01-03T12:25:05.523Z,102229.16
2023-01-03T12:27:41.477Z,102220.44
2023-01-03T12:30:24.334Z,102217.59
2023-01-03T12:33:14.828Z,102208.28
2023-01-03T12:36:02.759Z,102207.50
2023-01-03T12:38:36.587Z,102209.34
2023-01-03T12:41:23.836Z,102214.53
2023-01-03T12:43:58.395Z,102215.59
2023-01-03T12:46:36.125Z,102194.84
2023-01-03T12:49:18.864Z,102190.31
2023-01-03T12:51:46.341Z,102190.47
2023-01-03T12:54:22.941Z,102196.38
2023-01-03T12:56:55.044Z,102192.56
2023-01-03T13:00:05.202Z,102186.16
2023-01-03T13:02:58.188Z,102199.63
2023-01-03T13:05:44.778Z,102189.75
2023-01-03T13:08:24.708Z,102185.69
2023-01-03T13:10:56.947Z,102179.34
2023-01-03T13:13:24.558Z,102187.22
2023-01-03T13:15:53.825Z,102186.56
2023-01-03T13:18:21.163Z,102180.53
2023-01-03T13:20:55.304Z,102180.00
2023-01-03T13:23:41.013Z,102168.59
2023-01-03T13:26:28.659Z,102172.03
2023-01-03T13:29:34.384Z,102169.66
2023-01-03T13:32:13.304Z,102170.66
2023-01-03T13:34:40.695Z,102163.16
2023-01-03T13:37:07.945Z,102164.44
2023-01-03T13:40:01.542Z,102157.94
2023-01-03T13:42:34.816Z,102157.69
2023-01-03T13:45:11.095Z,102157.19
2023-01-03T13:47:42.990Z,102162.41
2023-01-03T13:50:24.876Z,102169.22
2023-01-03T13:53:02.213Z,102176.94
2023-01-03T13:55:54.788Z,102180.53
2023-01-03T13:58:41.038Z,102179.72
2023-01-03T14:01:20.323Z,102168.06
2023-01-03T14:04:08.276Z,102167.19
2023-01-03T14:06:54.702Z,102161.31
2023-01-03T14:09:34.400Z,102163.28
2023-01-03T14:12:32.739Z,102168.13
2023-01-03T14:15:23.157Z,102165.19
2023-01-03T14:17:57.875Z,102167.41
2023-01-03T14:20:36.666Z,102176.16
2023-01-03T14:23:48.306Z,102179.13
2023-01-03T14:26:04.697Z,102183.06
2023-01-03T14:28:34.216Z,102185.84
2023-01-03T14:31:08.972Z,102182.59
2023-01-03T14:33:56.863Z,102187.47
2023-01-03T14:36:24.503Z,102193.84
2023-01-03T14:38:55.447Z,102198.75
2023-01-03T14:41:34.918Z,102190.94
2023-01-03T14:44:09.354Z,102196.41
2023-01-03T14:46:37.921Z,102195.84
2023-01-03T14:49:14.433Z,102189.22
2023-01-03T14:51:41.796Z,102195.78
2023-01-03T14:54:16.599Z,102196.00
2023-01-03T14:56:46.715Z,102191.38
2023-01-03T14:59:21.613Z,102187.28
2023-01-03T15:01:49.408Z,102185.97
2023-01-03T15:04:19.447Z,102177.25
2023-01-03T15:07:09.593Z,102180.53
2023-01-03T15:09:40.405Z,102181.91
2023-01-03T15:12:07.994Z,102187.66
2023-01-03T15:14:39.253Z,102180.84
2023-01-03T15:17:16.345Z,102192.88
2023-01-03T15:19:52.884Z,102198.31
2023-01-03T15:22:23.817Z,102198.63
2023-01-03T15:25:08.689Z,102193.44
2023-01-03T15:27:39.061Z,102191.00
2023-01-03T15:30:20.663Z,102195.88
2023-01-03T15:33:03.436Z,102201.84
2023-01-03T15:35:40.684Z,102204.63
2023-01-03T15:38:23.173Z,102211.50
2023-01-03T15:40:51.067Z,102221.66
2023-01-03T15:43:23.441Z,102210.94
2023-01-03T15:46:03.466Z,102222.97
2023-01-03T15:48:35.512Z,102220.19
2023-01-03T15:51:04.110Z,102217.75
2023-01-03T15:53:36.454Z,102212.31
2023-01-03T15:56:24.733Z,102218.31
2023-01-03T15:58:54.965Z,102223.19
2023-01-03T16:01:24.365Z,102231.66
2023-01-03T16:03:52.671Z,102221.09
2023-01-03T16:06:20.227Z,102227.59
2023-01-03T16:08:47.671Z,102221.66
2023-01-03T16:11:22.989Z,102227.31
2023-01-03T16:13:54.875Z,102231.13
2023-01-03T16:16:26.315Z,102234.91
2023-01-03T16:18:54.604Z,102232.00
2023-01-03T16:21:22.684Z,102244.75
2023-01-03T16:23:51.309Z,102239.88
2023-01-03T16:26:19.234Z,102242.66
2023-01-03T16:28:46.610Z,102235.41
2023-01-03T16:31:20.149Z,102245.56
2023-01-03T16:33:49.442Z,102244.31
2023-01-03T16:36:38.002Z,102232.91
2023-01-03T16:39:12.017Z,102236.69
2023-01-03T16:41:39.373Z,102238.09
2023-01-03T16:44:06.819Z,102234.84
2023-01-03T16:46:36.098Z,102237.34
2023-01-03T16:49:04.914Z,102237.94
2023-01-03T16:51:35.353Z,102230.53
2023-01-03T16:54:08.242Z,102241.13
2023-01-03T16:56:35.605Z,102249.06
2023-01-03T16:59:03.259Z,102248.50
2023-01-03T17:01:30.731Z,102251.19
2023-01-03T17:03:58.340Z,102260.16
2023-01-03T17:06:37.886Z,102257.78
2023-01-03T17:09:15.200Z,102262.19
2023-01-03T17:11:43.779Z,102263.03
2023-01-03T17:14:20.540Z,102264.19
2023-01-03T17:16:49.372Z,102262.00
2023-01-03T17:20:01.916Z,102264.69
2023-01-03T17:22:20.000Z,102268.47
2023-01-03T17:24:49.265Z,102269.88
2023-01-03T17:27:27.818Z,102270.91
2023-01-03T17:30:01.915Z,102266.13
2023-01-03T17:32:30.192Z,102267.28
2023-01-03T17:34:57.807Z,102271.00
2023-01-03T17:37:25.968Z,102267.81
2023-01-03T17:39:56.594Z,102272.88
2023-01-03T17:42:26.514Z,102267.81
2023-01-03T17:45:12.398Z,102275.50
2023-01-03T17:48:01.341Z,102278.41
2023-01-03T17:50:32.214Z,102276.78
2023-01-03T17:53:01.961Z,102283.97
2023-01-03T17:55:30.749Z,102286.16
2023-01-03T17:58:01.511Z,102287.78
2023-01-03T18:00:30.143Z,102281.28
2023-01-03T18:03:00.491Z,102284.59
2023-01-03T18:05:29.859Z,102284.06
2023-01-03T18:08:00.294Z,102290.59
2023-01-03T18:10:37.491Z,102287.56
2023-01-03T18:13:20.943Z,102293.84
2023-01-03T18:15:48.698Z,102295.47
2023-01-03T18:18:18.369Z,102296.28
2023-01-03T18:20:46.510Z,102292.47
2023-01-03T18:23:19.857Z,102294.38
2023-01-03T18:25:47.477Z,102303.88
2023-01-03T18:28:20.500Z,102304.75
2023-01-03T18:30:47.952Z,102304.72
2023-01-03T18:33:15.410Z,102310.78
2023-01-03T18:35:43.698Z,102305.03
2023-01-03T18:38:25.008Z,102306.88
2023-01-03T18:40:57.446Z,102304.38
2023-01-03T18:43:29.701Z,102315.34
2023-01-03T18:45:57.184Z,102317.31
2023-01-03T18:48:24.677Z,102326.31
2023-01-03T18:50:58.426Z,102324.19
2023-01-03T18:53:31.134Z,102320.09
2023-01-03T18:55:59.788Z,102326.06
2023-01-03T18:58:34.081Z,102329.59
2023-01-03T19:01:01.750Z,102327.41
2023-01-03T19:03:32.072Z,102325.53
2023-01-03T19:06:00.653Z,102323.91
2023-01-03T19:08:32.458Z,102329.88
2023-01-03T19:11:06.075Z,102321.94
2023-01-03T19:13:50.816Z,102313.53
2023-01-03T19:16:35.895Z,102317.22
2023-01-03T19:19:04.928Z,102321.59
2023-01-03T19:21:35.744Z,102320.25
2023-01-03T19:24:05.469Z,102327.31
2023-01-03T19:26:59.190Z,102319.09
2023-01-03T19:29:36.671Z,102321.59
2023-01-03T19:32:08.264Z,102315.53
2023-01-03T19:34:35.619Z,102325.63
2023-01-03T19:37:03.066Z,102325.44
2023-01-03T19:39:36.801Z,102338.81
2023-01-03T19:42:30.720Z,102343.72
2023-01-03T19:45:00.391Z,102338.28
2023-01-03T19:47:28.174Z,102344.78
2023-01-03T19:50:23.236Z,102343.47
2023-01-03T19:52:50.866Z,102354.66
2023-01-03T19:55:18.216Z,102346.44
2023-01-03T19:57:48.780Z,102336.88
2023-01-03T20:00:20.383Z,102340.16
2023-01-03T20:02:50.695Z,102347.56
2023-01-03T20:05:21.614Z,102347.88
2023-01-03T20:07:49.969Z,102349.50
2023-01-03T20:10:23.387Z,102352.47
2023-01-03T20:12:55.525Z,102353.00
2023-01-03T20:15:26.075Z,102348.63
2023-01-03T20:17:54.156Z,102344.00
2023-01-03T20:20:23.147Z,102345.94
2023-01-03T20:23:07.093Z,102346.47
2023-01-03T20:25:53.759Z,102353.03
2023-01-03T20:28:29.270Z,102351.13
2023-01-03T20:31:00.954Z,102343.78
2023-01-03T20:33:28.883Z,102346.78
2023-01-03T20:36:14.255Z,102344.88
2023-01-03T20:38:47.278Z,102343.25
2023-01-03T20:41:16.917Z,102346.50
2023-01-03T20:43:44.790Z,102344.06
2023-01-03T20:46:20.105Z,102346.78
2023-01-03T20:48:56.076Z,102349.53
2023-01-03T20:51:24.589Z,102347.66
2023-01-03T20:53:55.110Z,102342.81
2023-01-03T20:56:23.620Z,102343.06
2023-01-03T20:58:51.733Z,102336.53
2023-01-03T21:01:19.372Z,102332.22
2023-01-03T21:03:47.082Z,102336.06
2023-01-03T21:06:23.121Z,102334.16
2023-01-03T21:08:57.707Z,102341.78
2023-01-03T21:11:25.224Z,102336.56
2023-01-03T21:13:53.220Z,102334.44
2023-01-03T21:16:36.589Z,102336.06
2023-01-03T21:19:13.150Z,102342.63
2023-01-03T21:21:45.273Z,102342.03
2023-01-03T21:24:14.443Z,102342.03
2023-01-03T21:26:42.131Z,102327.09
2023-01-03T21:29:09.786Z,102338.25
2023-01-03T21:31:39.031Z,102338.28
2023-01-03T21:34:12.875Z,102340.16
2023-01-03T21:36:40.199Z,102338.50
2023-01-03T21:39:07.678Z,102343.41
2023-01-03T21:41:55.914Z,102346.13
2023-01-03T21:44:23.308Z,102339.91
2023-01-03T21:46:50.671Z,102344.53
2023-01-03T21:49:18.222Z,102347.22
2023-01-03T21:51:45.663Z,102350.75
2023-01-03T21:54:12.983Z,102354.00
2023-01-03T21:56:45.728Z,102352.09
2023-01-03T21:59:17.326Z,102354.56
2023-01-03T22:02:04.628Z,102363.53
2023-01-03T22:04:32.750Z,102362.97
2023-01-03T22:07:03.045Z,102367.38
2023-01-03T22:09:50.472Z,102371.41
2023-01-03T22:12:19.495Z,102374.44
2023-01-03T22:14:47.519Z,102373.31
2023-01-03T22:17:16.771Z,102375.75
2023-01-03T22:19:44.285Z,102374.13
2023-01-03T22:22:11.683Z,102378.75
2023-01-03T22:24:39.147Z,102382.59
2023-01-03T22:27:06.591Z,102380.41
2023-01-03T22:29:33.963Z,102383.94
2023-01-03T22:32:01.462Z,102392.66
2023-01-03T22:34:29.093Z,102388.03
2023-01-03T22:36:56.523Z,102394.00
2023-01-03T22:39:23.952Z,102385.84
2023-01-03T22:41:51.312Z,102396.16
2023-01-03T22:44:18.747Z,102396.44
2023-01-03T22:46:46.029Z,102398.91
2023-01-03T22:49:13.497Z,102399.97
2023-01-03T22:51:40.904Z,102402.16
2023-01-03T22:54:08.303Z,102399.19
2023-01-03T22:56:35.631Z,102397.84
2023-01-03T22:59:02.993Z,102398.94
2023-01-03T23:01:31.611Z,102405.19
2023-01-03T23:04:01.157Z,102397.56
2023-01-03T23:06:31.461Z,102398.38
2023-01-03T23:08:59.921Z,102400.00
2023-01-03T23:11:49.793Z,102402.72
2023-01-03T23:14:21.784Z,102407.63
2023-01-03T23:16:51.326Z,102402.19
2023-01-03T23:19:21.644Z,102394.88
2023-01-03T23:21:49.144Z,102392.97
2023-01-03T23:24:19.513Z,102390.25
2023-01-03T23:26:46.887Z,102388.91
2023-01-03T23:29:15.024Z,102387.00
2023-01-03T23:31:43.004Z,102379.09
2023-01-03T23:34:12.177Z,102378.28
2023-01-03T23:36:42.820Z,102376.66
2023-01-03T23:39:13.011Z,102369.59
2023-01-03T23:41:40.963Z,102379.38
2023-01-03T23:44:08.715Z,102377.47
2023-01-03T23:46:36.181Z,102375.84
2023-01-03T23:49:03.916Z,102381.81
2023-01-03T23:51:31.418Z,102375.84
2023-01-03T23:53:59.421Z,102370.94
2023-01-03T23:56:26.859Z,102376.38
2023-01-03T23:58:54.292Z,102370.41
